• Join FlightAware (Why Join?)
  • Login
  • US Flag 
02:03AM EDT


 

Airport Tracker/Info


-or-


 

Live Flight TrackerFlight Track Log ✈ ASH2834 ✈ 04-May-2013 ✈ KPHX - KTUS

Flight Track Log - Related Links

Times and Time Zones

All times are in EDT time to prevent confusion due to time zone crossing. See the ASH2834 flight status page for this flight to view local times or setup timezone preferences in your user account.

Time Position Orientation Groundspeed Altitude Reporting Facility
EDT Latitude Longitude Course Direction KTS MPH feet Rate Location/Type
12:53AM 33.4333 -112.0333 144° Southeast 141 162 2,200  Level Phoenix TRACON
12:54AM 33.4283 -112.0442 241° Southwest 155 178 2,500 1,500 Climbing Albuquerque Center
12:55AM 33.4072 -112.1150 250° West 228 262 4,400 2,580 Climbing Albuquerque Center
12:56AM 33.0453 -111.9318 164° South  Level FlightAware Approximate
12:56AM 33.3703 -112.1892 239° Southwest 267 307 7,700  Level Albuquerque Center
12:57AM 32.9164 -111.9110 164° South  Level FlightAware Approximate
12:57AM 33.3019 -112.1811 174° South 256 295 8,000  Level Albuquerque Center
12:58AM 32.8047 -111.8326 144° Southeast  Level FlightAware Approximate
12:58AM 33.2264 -112.1331 152° Southeast 258 297 9,700  Level Albuquerque Center
12:59AM 33.1578 -112.0883 151° Southeast 278 320 12,300 2,400 Climbing Albuquerque Center
01:00AM 33.0786 -112.0347 150° Southeast 322 371 14,600 2,220 Climbing Albuquerque Center
01:01AM 32.9939 -111.9781 151° Southeast 346 398 16,800 1,140 Climbing Albuquerque Center
01:02AM 32.9011 -111.9167 151° Southeast 379 436 16,900  Climbing Albuquerque Center
01:03AM 32.8183 -111.8503 146° Southeast 361 415 16,900  Level Albuquerque Center
01:04AM 32.7383 -111.7836 145° Southeast 354 407 16,900  Level Albuquerque Center
01:05AM 32.6539 -111.7158 146° Southeast 366 421 16,900 -60 Level Albuquerque Center
01:06AM 32.5781 -111.6553 146° Southeast 372 428 16,800 -540 Descending Albuquerque Center
01:06AM 32.5528 -111.6342 145° Southeast 370 426 16,300 -2,340 Descending Albuquerque Center
01:07AM 32.5033 -111.5586 128° Southeast 360 414 14,200 -2,100 Descending Albuquerque Center
01:08AM 32.4397 -111.4750 132° Southeast 347 399 12,500 -1,740 Descending Albuquerque Center
01:09AM 32.3833 -111.3992 131° Southeast 319 367 10,800 -1,680 Descending Albuquerque Center
01:10AM 32.3311 -111.3267 130° Southeast 298 343 9,200 -1,440 Descending Albuquerque Center
01:11AM 32.2850 -111.2600 129° Southeast 272 313 8,000 -600 Descending Albuquerque Center
01:12AM 32.2369 -111.1922 130° Southeast 268 308 8,000 -180 Level Albuquerque Center
01:13AM 32.1872 -111.1292 133° Southeast 266 306 7,700 -720 Descending Albuquerque Center
01:14AM 32.1386 -111.0792 139° Southeast 243 280 6,600 -1,140 Descending Albuquerque Center
01:15AM 32.0994 -111.0278 132° Southeast 226 260 5,500 -1,020 Descending Albuquerque Center
01:16AM 32.0656 -110.9703 125° Southeast 215 247 4,600 -420 Descending Albuquerque Center
01:17AM 32.0339 -110.9167 125° Southeast 214 246 4,700 -720 Climbing Albuquerque Center
01:18AM 32.0836 -110.9000 16° North 171 197 3,100 -780 Descending Albuquerque Center
01:20AM 32.1075 -110.9564 297° West 92 106 2,400 -420 Descending Albuquerque Center